sensor_id;sensor_type;location;lat;lon;timestamp;pressure;altitude;pressure_sealevel;temperature;humidity
76519;BME280;67029;51.054;13.798;2023-12-22T00:00:58;97826.44;;;8.43;55.66
76519;BME280;67029;51.054;13.798;2023-12-22T00:03:28;97823.59;;;8.37;55.75
76519;BME280;67029;51.054;13.798;2023-12-22T00:05:58;97808.68;;;8.36;55.54
76519;BME280;67029;51.054;13.798;2023-12-22T00:08:28;97818.21;;;8.32;55.74
76519;BME280;67029;51.054;13.798;2023-12-22T00:10:58;97811.23;;;8.35;55.62
76519;BME280;67029;51.054;13.798;2023-12-22T00:13:28;97791.35;;;8.30;55.10
76519;BME280;67029;51.054;13.798;2023-12-22T00:15:59;97814.50;;;8.23;55.03
76519;BME280;67029;51.054;13.798;2023-12-22T00:18:29;97816.05;;;8.23;55.28
76519;BME280;67029;51.054;13.798;2023-12-22T00:20:59;97819.82;;;8.24;55.10
76519;BME280;67029;51.054;13.798;2023-12-22T00:23:29;97819.68;;;8.29;55.39
76519;BME280;67029;51.054;13.798;2023-12-22T00:25:59;97807.03;;;8.29;55.18
76519;BME280;67029;51.054;13.798;2023-12-22T00:28:29;97813.36;;;8.31;55.08
76519;BME280;67029;51.054;13.798;2023-12-22T00:30:59;97820.10;;;8.33;54.89
76519;BME280;67029;51.054;13.798;2023-12-22T00:33:29;97808.91;;;8.27;54.93
76519;BME280;67029;51.054;13.798;2023-12-22T00:35:59;97822.73;;;8.28;54.77
76519;BME280;67029;51.054;13.798;2023-12-22T00:38:29;97818.25;;;8.31;54.42
76519;BME280;67029;51.054;13.798;2023-12-22T00:40:59;97826.05;;;8.37;54.42
76519;BME280;67029;51.054;13.798;2023-12-22T00:43:29;97829.69;;;8.38;54.50
76519;BME280;67029;51.054;13.798;2023-12-22T00:45:59;97818.31;;;8.25;54.60
76519;BME280;67029;51.054;13.798;2023-12-22T00:48:29;97822.45;;;8.31;54.66
76519;BME280;67029;51.054;13.798;2023-12-22T00:51:00;97813.89;;;8.35;54.54
76519;BME280;67029;51.054;13.798;2023-12-22T00:53:30;97820.83;;;8.30;54.80
76519;BME280;67029;51.054;13.798;2023-12-22T00:56:00;97819.83;;;8.31;54.51
76519;BME280;67029;51.054;13.798;2023-12-22T00:58:30;97829.47;;;8.43;54.05
76519;BME280;67029;51.054;13.798;2023-12-22T01:01:00;97828.50;;;8.35;54.17
76519;BME280;67029;51.054;13.798;2023-12-22T01:03:30;97856.59;;;8.28;54.35
76519;BME280;67029;51.054;13.798;2023-12-22T01:06:00;97856.58;;;8.26;54.12
76519;BME280;67029;51.054;13.798;2023-12-22T01:08:30;97858.08;;;8.34;54.30
76519;BME280;67029;51.054;13.798;2023-12-22T01:11:00;97847.70;;;8.40;53.54
76519;BME280;67029;51.054;13.798;2023-12-22T01:13:30;97838.15;;;8.28;53.88
76519;BME280;67029;51.054;13.798;2023-12-22T01:16:00;97864.75;;;8.37;53.89
76519;BME280;67029;51.054;13.798;2023-12-22T01:18:30;97878.61;;;8.41;54.08
76519;BME280;67029;51.054;13.798;2023-12-22T01:21:00;97856.05;;;8.38;54.03
76519;BME280;67029;51.054;13.798;2023-12-22T01:23:30;97859.93;;;8.48;54.03
76519;BME280;67029;51.054;13.798;2023-12-22T01:26:00;97870.84;;;8.49;53.78
76519;BME280;67029;51.054;13.798;2023-12-22T01:28:30;97872.30;;;8.59;53.47
76519;BME280;67029;51.054;13.798;2023-12-22T01:31:00;97870.54;;;8.63;53.38
76519;BME280;67029;51.054;13.798;2023-12-22T01:33:30;97869.67;;;8.66;52.80
76519;BME280;67029;51.054;13.798;2023-12-22T01:36:01;97878.16;;;8.66;53.16
76519;BME280;67029;51.054;13.798;2023-12-22T01:38:30;97876.17;;;8.59;53.50
76519;BME280;67029;51.054;13.798;2023-12-22T01:41:01;97882.55;;;8.60;53.48
76519;BME280;67029;51.054;13.798;2023-12-22T01:43:31;97885.19;;;8.57;53.56
76519;BME280;67029;51.054;13.798;2023-12-22T01:46:02;97897.86;;;8.46;53.28
76519;BME280;67029;51.054;13.798;2023-12-22T01:48:32;97893.34;;;8.45;53.63
76519;BME280;67029;51.054;13.798;2023-12-22T01:51:04;97884.22;;;8.45;53.60
76519;BME280;67029;51.054;13.798;2023-12-22T01:53:32;97901.00;;;8.54;53.52
76519;BME280;67029;51.054;13.798;2023-12-22T01:56:04;97888.22;;;8.56;53.29
76519;BME280;67029;51.054;13.798;2023-12-22T01:58:34;97872.89;;;8.54;53.40
76519;BME280;67029;51.054;13.798;2023-12-22T02:01:04;97891.25;;;8.57;53.35
76519;BME280;67029;51.054;13.798;2023-12-22T02:03:34;97910.83;;;8.49;53.59
76519;BME280;67029;51.054;13.798;2023-12-22T02:06:05;97911.84;;;8.56;53.99
76519;BME280;67029;51.054;13.798;2023-12-22T02:08:34;97920.78;;;8.46;53.95
76519;BME280;67029;51.054;13.798;2023-12-22T02:11:05;97924.20;;;8.54;54.27
76519;BME280;67029;51.054;13.798;2023-12-22T02:13:35;97916.97;;;8.51;54.25
76519;BME280;67029;51.054;13.798;2023-12-22T02:16:31;97929.95;;;8.54;54.52
76519;BME280;67029;51.054;13.798;2023-12-22T02:18:39;97913.23;;;8.55;54.73
76519;BME280;67029;51.054;13.798;2023-12-22T02:21:06;97925.73;;;8.42;54.88
76519;BME280;67029;51.054;13.798;2023-12-22T02:23:36;97932.14;;;8.27;55.15
76519;BME280;67029;51.054;13.798;2023-12-22T02:26:12;97935.53;;;8.27;55.37
76519;BME280;67029;51.054;13.798;2023-12-22T02:28:39;97939.19;;;8.24;55.32
76519;BME280;67029;51.054;13.798;2023-12-22T02:31:20;97931.81;;;8.33;55.17
76519;BME280;67029;51.054;13.798;2023-12-22T02:33:41;97925.96;;;8.35;55.05
76519;BME280;67029;51.054;13.798;2023-12-22T02:36:09;97934.10;;;8.19;55.13
76519;BME280;67029;51.054;13.798;2023-12-22T02:38:40;97921.27;;;8.08;55.41
76519;BME280;67029;51.054;13.798;2023-12-22T02:41:10;97921.41;;;8.09;55.44
76519;BME280;67029;51.054;13.798;2023-12-22T02:43:40;97926.05;;;8.13;55.58
76519;BME280;67029;51.054;13.798;2023-12-22T02:46:13;97930.77;;;8.14;55.37
76519;BME280;67029;51.054;13.798;2023-12-22T02:48:40;97934.61;;;8.01;55.31
76519;BME280;67029;51.054;13.798;2023-12-22T02:51:10;97935.12;;;8.03;55.43
76519;BME280;67029;51.054;13.798;2023-12-22T02:53:40;97933.09;;;8.01;55.31
76519;BME280;67029;51.054;13.798;2023-12-22T02:56:10;97920.76;;;7.98;55.44
76519;BME280;67029;51.054;13.798;2023-12-22T02:58:40;97932.75;;;7.97;55.50
76519;BME280;67029;51.054;13.798;2023-12-22T03:01:10;97920.03;;;7.87;55.40
76519;BME280;67029;51.054;13.798;2023-12-22T03:03:40;97923.66;;;7.87;55.50
76519;BME280;67029;51.054;13.798;2023-12-22T03:06:10;97908.06;;;7.92;55.54
76519;BME280;67029;51.054;13.798;2023-12-22T03:08:40;97898.85;;;7.89;55.31
76519;BME280;67029;51.054;13.798;2023-12-22T03:11:10;97900.62;;;7.95;55.18
76519;BME280;67029;51.054;13.798;2023-12-22T03:13:41;97891.48;;;7.93;55.24
76519;BME280;67029;51.054;13.798;2023-12-22T03:16:11;97900.48;;;7.96;55.23
76519;BME280;67029;51.054;13.798;2023-12-22T03:18:40;97896.33;;;7.93;55.30
76519;BME280;67029;51.054;13.798;2023-12-22T03:21:17;97893.08;;;7.95;55.05
76519;BME280;67029;51.054;13.798;2023-12-22T03:23:41;97895.27;;;7.95;55.09
76519;BME280;67029;51.054;13.798;2023-12-22T03:26:11;97899.03;;;7.90;55.06
76519;BME280;67029;51.054;13.798;2023-12-22T03:28:41;97903.12;;;7.98;55.08
76519;BME280;67029;51.054;13.798;2023-12-22T03:31:11;97893.45;;;7.96;54.98
76519;BME280;67029;51.054;13.798;2023-12-22T03:33:41;97874.44;;;8.08;54.52
76519;BME280;67029;51.054;13.798;2023-12-22T03:36:11;97891.47;;;7.99;54.23
76519;BME280;67029;51.054;13.798;2023-12-22T03:38:41;97888.62;;;8.00;54.29
76519;BME280;67029;51.054;13.798;2023-12-22T03:41:11;97872.20;;;7.95;54.08
76519;BME280;67029;51.054;13.798;2023-12-22T03:43:41;97874.41;;;7.94;53.68
76519;BME280;67029;51.054;13.798;2023-12-22T03:46:11;97866.39;;;7.97;53.48
76519;BME280;67029;51.054;13.798;2023-12-22T03:48:41;97876.25;;;7.93;53.29
76519;BME280;67029;51.054;13.798;2023-12-22T03:51:11;97890.06;;;7.92;53.49
76519;BME280;67029;51.054;13.798;2023-12-22T03:53:42;97899.02;;;7.89;53.70
76519;BME280;67029;51.054;13.798;2023-12-22T03:56:12;97897.28;;;7.99;53.64
76519;BME280;67029;51.054;13.798;2023-12-22T03:58:41;97905.56;;;7.96;53.66
76519;BME280;67029;51.054;13.798;2023-12-22T04:01:14;97879.09;;;7.99;53.18
76519;BME280;67029;51.054;13.798;2023-12-22T04:03:42;97886.34;;;7.93;52.91
76519;BME280;67029;51.054;13.798;2023-12-22T04:06:12;97883.62;;;7.94;52.46
76519;BME280;67029;51.054;13.798;2023-12-22T04:08:42;97901.69;;;7.94;53.11
76519;BME280;67029;51.054;13.798;2023-12-22T04:11:12;97897.33;;;8.06;52.67
76519;BME280;67029;51.054;13.798;2023-12-22T04:13:42;97891.94;;;8.14;52.38
76519;BME280;67029;51.054;13.798;2023-12-22T04:16:12;97890.44;;;8.16;52.55
76519;BME280;67029;51.054;13.798;2023-12-22T04:18:42;97895.20;;;8.20;52.33
76519;BME280;67029;51.054;13.798;2023-12-22T04:21:12;97892.74;;;8.18;52.10
76519;BME280;67029;51.054;13.798;2023-12-22T04:23:42;97887.03;;;8.26;52.21
76519;BME280;67029;51.054;13.798;2023-12-22T04:26:12;97883.13;;;8.21;51.79
76519;BME280;67029;51.054;13.798;2023-12-22T04:28:42;97879.70;;;8.06;51.96
76519;BME280;67029;51.054;13.798;2023-12-22T04:31:12;97890.20;;;8.11;52.01
76519;BME280;67029;51.054;13.798;2023-12-22T04:33:42;97882.89;;;8.09;51.69
76519;BME280;67029;51.054;13.798;2023-12-22T04:36:12;97891.51;;;8.10;52.19
76519;BME280;67029;51.054;13.798;2023-12-22T04:38:42;97909.88;;;8.05;52.20
76519;BME280;67029;51.054;13.798;2023-12-22T04:41:12;97907.06;;;8.02;52.52
76519;BME280;67029;51.054;13.798;2023-12-22T04:43:42;97909.63;;;8.09;52.45
76519;BME280;67029;51.054;13.798;2023-12-22T04:46:12;97905.92;;;8.07;52.72
76519;BME280;67029;51.054;13.798;2023-12-22T04:48:43;97912.98;;;8.11;52.43
76519;BME280;67029;51.054;13.798;2023-12-22T04:51:12;97910.84;;;8.12;52.42
76519;BME280;67029;51.054;13.798;2023-12-22T04:53:43;97904.75;;;8.13;52.58
76519;BME280;67029;51.054;13.798;2023-12-22T04:56:13;97897.47;;;8.10;52.65
76519;BME280;67029;51.054;13.798;2023-12-22T04:58:42;97887.70;;;8.08;52.61
76519;BME280;67029;51.054;13.798;2023-12-22T05:01:12;97898.58;;;8.15;52.62
76519;BME280;67029;51.054;13.798;2023-12-22T05:03:42;97898.55;;;8.22;51.87
76519;BME280;67029;51.054;13.798;2023-12-22T05:06:13;97886.34;;;8.13;52.01
76519;BME280;67029;51.054;13.798;2023-12-22T05:08:43;97893.61;;;7.86;52.50
76519;BME280;67029;51.054;13.798;2023-12-22T05:11:13;97893.20;;;7.89;52.91
76519;BME280;67029;51.054;13.798;2023-12-22T05:13:43;97883.34;;;7.84;52.92
76519;BME280;67029;51.054;13.798;2023-12-22T05:16:13;97902.12;;;7.77;53.58
76519;BME280;67029;51.054;13.798;2023-12-22T05:18:43;97893.76;;;7.83;53.63
76519;BME280;67029;51.054;13.798;2023-12-22T05:21:14;97914.66;;;7.89;53.58
76519;BME280;67029;51.054;13.798;2023-12-22T05:23:43;97905.82;;;7.85;53.74
76519;BME280;67029;51.054;13.798;2023-12-22T05:26:17;97902.05;;;7.81;53.84
76519;BME280;67029;51.054;13.798;2023-12-22T05:28:44;97899.57;;;7.78;53.80
76519;BME280;67029;51.054;13.798;2023-12-22T05:31:14;97908.68;;;7.77;54.04
76519;BME280;67029;51.054;13.798;2023-12-22T05:33:44;97905.34;;;7.62;54.31
76519;BME280;67029;51.054;13.798;2023-12-22T05:36:14;97914.77;;;7.59;54.56
76519;BME280;67029;51.054;13.798;2023-12-22T05:38:44;97921.75;;;7.58;54.73
76519;BME280;67029;51.054;13.798;2023-12-22T05:41:14;97906.10;;;7.49;55.14
76519;BME280;67029;51.054;13.798;2023-12-22T05:43:44;97924.66;;;7.56;55.37
76519;BME280;67029;51.054;13.798;2023-12-22T05:46:14;97917.32;;;7.59;55.14
76519;BME280;67029;51.054;13.798;2023-12-22T05:48:44;97915.41;;;7.56;55.16
76519;BME280;67029;51.054;13.798;2023-12-22T05:51:14;97905.42;;;7.62;55.03
76519;BME280;67029;51.054;13.798;2023-12-22T05:53:44;97897.30;;;7.49;55.05
76519;BME280;67029;51.054;13.798;2023-12-22T05:56:21;97912.00;;;7.51;55.13
76519;BME280;67029;51.054;13.798;2023-12-22T05:58:45;97915.12;;;7.53;54.95
76519;BME280;67029;51.054;13.798;2023-12-22T06:01:16;97917.80;;;7.56;55.12
76519;BME280;67029;51.054;13.798;2023-12-22T06:03:46;97929.73;;;7.60;54.67
76519;BME280;67029;51.054;13.798;2023-12-22T06:06:16;97934.86;;;7.57;54.90
76519;BME280;67029;51.054;13.798;2023-12-22T06:08:46;97928.45;;;7.56;54.94
76519;BME280;67029;51.054;13.798;2023-12-22T06:11:16;97952.94;;;7.53;55.03
76519;BME280;67029;51.054;13.798;2023-12-22T06:13:46;97936.21;;;7.55;55.31
76519;BME280;67029;51.054;13.798;2023-12-22T06:16:16;97929.17;;;7.57;55.24
76519;BME280;67029;51.054;13.798;2023-12-22T06:18:46;97944.95;;;7.55;55.19
76519;BME280;67029;51.054;13.798;2023-12-22T06:21:16;97945.91;;;7.50;55.39
76519;BME280;67029;51.054;13.798;2023-12-22T06:23:46;97934.62;;;7.48;55.45
76519;BME280;67029;51.054;13.798;2023-12-22T06:26:16;97929.14;;;7.51;55.44
76519;BME280;67029;51.054;13.798;2023-12-22T06:28:46;97953.33;;;7.37;55.28
76519;BME280;67029;51.054;13.798;2023-12-22T06:31:17;97958.93;;;7.32;55.28
76519;BME280;67029;51.054;13.798;2023-12-22T06:33:48;97941.32;;;7.39;55.32
76519;BME280;67029;51.054;13.798;2023-12-22T06:36:24;97931.20;;;7.42;55.02
76519;BME280;67029;51.054;13.798;2023-12-22T06:38:50;97936.73;;;7.44;54.96
76519;BME280;67029;51.054;13.798;2023-12-22T06:41:22;97937.10;;;7.37;55.04
76519;BME280;67029;51.054;13.798;2023-12-22T06:43:49;97938.67;;;7.39;54.72
76519;BME280;67029;51.054;13.798;2023-12-22T06:46:20;97924.50;;;7.47;54.49
76519;BME280;67029;51.054;13.798;2023-12-22T06:48:49;97918.76;;;7.37;54.13
76519;BME280;67029;51.054;13.798;2023-12-22T06:51:29;97931.03;;;7.42;54.30
76519;BME280;67029;51.054;13.798;2023-12-22T06:53:50;97935.09;;;7.37;54.33
76519;BME280;67029;51.054;13.798;2023-12-22T06:56:24;97920.30;;;7.36;54.22
76519;BME280;67029;51.054;13.798;2023-12-22T06:58:53;97933.98;;;7.31;54.25
76519;BME280;67029;51.054;13.798;2023-12-22T07:01:23;97944.80;;;7.28;54.38
76519;BME280;67029;51.054;13.798;2023-12-22T07:03:51;97936.73;;;7.16;54.45
76519;BME280;67029;51.054;13.798;2023-12-22T07:06:22;97918.73;;;7.16;54.44
76519;BME280;67029;51.054;13.798;2023-12-22T07:11:22;97914.36;;;7.19;54.40
76519;BME280;67029;51.054;13.798;2023-12-22T07:13:52;97929.41;;;7.12;54.59
76519;BME280;67029;51.054;13.798;2023-12-22T07:16:22;97938.83;;;7.13;54.62
76519;BME280;67029;51.054;13.798;2023-12-22T07:18:52;97929.34;;;7.16;54.80
76519;BME280;67029;51.054;13.798;2023-12-22T07:21:22;97947.64;;;7.18;54.57
76519;BME280;67029;51.054;13.798;2023-12-22T07:23:52;97944.11;;;7.23;54.55
76519;BME280;67029;51.054;13.798;2023-12-22T07:26:22;97950.00;;;7.27;54.36
76519;BME280;67029;51.054;13.798;2023-12-22T07:28:55;97958.36;;;7.21;54.60
76519;BME280;67029;51.054;13.798;2023-12-22T07:31:23;97968.59;;;7.05;54.93
76519;BME280;67029;51.054;13.798;2023-12-22T07:33:53;97971.81;;;7.03;55.06
76519;BME280;67029;51.054;13.798;2023-12-22T07:36:23;97990.30;;;6.98;55.49
76519;BME280;67029;51.054;13.798;2023-12-22T07:38:53;97961.59;;;7.04;55.31
76519;BME280;67029;51.054;13.798;2023-12-22T07:41:23;97985.93;;;6.98;55.61
76519;BME280;67029;51.054;13.798;2023-12-22T07:43:53;97979.67;;;7.05;55.48
76519;BME280;67029;51.054;13.798;2023-12-22T07:46:23;98005.13;;;7.08;55.66
76519;BME280;67029;51.054;13.798;2023-12-22T07:48:53;98013.73;;;7.05;56.06
76519;BME280;67029;51.054;13.798;2023-12-22T07:51:23;98017.55;;;7.07;56.51
76519;BME280;67029;51.054;13.798;2023-12-22T07:53:53;98039.70;;;7.01;57.27
76519;BME280;67029;51.054;13.798;2023-12-22T07:56:23;98043.42;;;7.05;57.51
76519;BME280;67029;51.054;13.798;2023-12-22T07:58:53;98055.33;;;7.16;57.39
76519;BME280;67029;51.054;13.798;2023-12-22T08:01:23;98067.08;;;7.21;57.93
76519;BME280;67029;51.054;13.798;2023-12-22T08:03:53;98076.48;;;7.13;58.44
76519;BME280;67029;51.054;13.798;2023-12-22T08:06:23;98079.41;;;7.09;58.71
76519;BME280;67029;51.054;13.798;2023-12-22T08:08:54;98106.61;;;6.92;59.79
76519;BME280;67029;51.054;13.798;2023-12-22T08:11:24;98115.75;;;6.97;60.51
76519;BME280;67029;51.054;13.798;2023-12-22T08:13:54;98077.97;;;6.83;59.86
76519;BME280;67029;51.054;13.798;2023-12-22T08:16:25;98140.38;;;6.74;60.22
76519;BME280;67029;51.054;13.798;2023-12-22T08:18:54;98140.45;;;6.87;60.79
76519;BME280;67029;51.054;13.798;2023-12-22T08:21:24;98099.51;;;6.88;60.27
76519;BME280;67029;51.054;13.798;2023-12-22T08:23:54;98083.64;;;6.78;60.30
76519;BME280;67029;51.054;13.798;2023-12-22T08:26:24;98093.47;;;6.67;60.30
76519;BME280;67029;51.054;13.798;2023-12-22T08:28:54;98084.67;;;6.46;61.06
76519;BME280;67029;51.054;13.798;2023-12-22T08:31:24;98099.11;;;6.51;61.24
76519;BME280;67029;51.054;13.798;2023-12-22T08:33:54;98093.59;;;6.45;61.31
76519;BME280;67029;51.054;13.798;2023-12-22T08:36:25;98100.23;;;6.32;61.23
76519;BME280;67029;51.054;13.798;2023-12-22T08:38:55;98105.66;;;6.19;61.81
76519;BME280;67029;51.054;13.798;2023-12-22T08:41:25;98112.51;;;6.09;62.10
76519;BME280;67029;51.054;13.798;2023-12-22T08:43:55;98130.06;;;6.06;61.50
76519;BME280;67029;51.054;13.798;2023-12-22T08:46:25;98147.05;;;6.14;61.70
76519;BME280;67029;51.054;13.798;2023-12-22T08:48:55;98151.77;;;6.19;62.46
76519;BME280;67029;51.054;13.798;2023-12-22T08:51:28;98144.27;;;6.09;62.32
76519;BME280;67029;51.054;13.798;2023-12-22T08:53:55;98141.70;;;6.17;62.04
76519;BME280;67029;51.054;13.798;2023-12-22T08:56:26;98133.30;;;6.20;61.90
76519;BME280;67029;51.054;13.798;2023-12-22T08:58:56;98141.85;;;6.29;62.17
76519;BME280;67029;51.054;13.798;2023-12-22T09:01:26;98150.50;;;6.30;62.16
76519;BME280;67029;51.054;13.798;2023-12-22T09:03:57;98159.60;;;6.24;62.18
76519;BME280;67029;51.054;13.798;2023-12-22T09:06:26;98170.71;;;6.31;61.96
76519;BME280;67029;51.054;13.798;2023-12-22T09:08:57;98176.91;;;6.31;62.43
76519;BME280;67029;51.054;13.798;2023-12-22T09:11:29;98200.09;;;6.36;62.68
76519;BME280;67029;51.054;13.798;2023-12-22T09:13:57;98182.56;;;6.41;63.18
76519;BME280;67029;51.054;13.798;2023-12-22T09:16:27;98170.39;;;6.43;62.62
76519;BME280;67029;51.054;13.798;2023-12-22T09:18:57;98165.91;;;6.42;63.40
76519;BME280;67029;51.054;13.798;2023-12-22T09:21:27;98158.91;;;6.35;62.82
76519;BME280;67029;51.054;13.798;2023-12-22T09:23:57;98184.02;;;6.27;62.56
76519;BME280;67029;51.054;13.798;2023-12-22T09:26:28;98172.71;;;6.29;62.50
76519;BME280;67029;51.054;13.798;2023-12-22T09:28:58;98201.19;;;6.21;62.67
76519;BME280;67029;51.054;13.798;2023-12-22T09:31:28;98181.53;;;6.16;63.28
76519;BME280;67029;51.054;13.798;2023-12-22T09:33:59;98174.17;;;6.30;62.96
76519;BME280;67029;51.054;13.798;2023-12-22T09:36:29;98180.29;;;6.30;62.75
76519;BME280;67029;51.054;13.798;2023-12-22T09:38:58;98181.39;;;6.26;62.73
76519;BME280;67029;51.054;13.798;2023-12-22T09:41:29;98188.50;;;6.63;62.76
76519;BME280;67029;51.054;13.798;2023-12-22T09:43:59;98184.45;;;7.19;62.50
76519;BME280;67029;51.054;13.798;2023-12-22T09:46:30;98184.53;;;7.29;61.96
76519;BME280;67029;51.054;13.798;2023-12-22T09:49:01;98178.56;;;7.44;61.91
76519;BME280;67029;51.054;13.798;2023-12-22T09:51:31;98177.02;;;7.49;61.23
76519;BME280;67029;51.054;13.798;2023-12-22T09:54:02;98185.08;;;7.66;60.95
76519;BME280;67029;51.054;13.798;2023-12-22T09:56:33;98196.36;;;7.77;60.41
76519;BME280;67029;51.054;13.798;2023-12-22T09:59:02;98181.37;;;7.81;59.85
76519;BME280;67029;51.054;13.798;2023-12-22T10:01:34;98176.16;;;7.83;59.69
76519;BME280;67029;51.054;13.798;2023-12-22T10:04:03;98176.25;;;7.77;58.80
76519;BME280;67029;51.054;13.798;2023-12-22T10:06:34;98173.91;;;7.68;58.36
76519;BME280;67029;51.054;13.798;2023-12-22T10:09:05;98167.36;;;7.65;57.98
76519;BME280;67029;51.054;13.798;2023-12-22T10:11:35;98171.32;;;7.61;57.46
76519;BME280;67029;51.054;13.798;2023-12-22T10:14:05;98167.02;;;7.65;56.94
76519;BME280;67029;51.054;13.798;2023-12-22T10:16:35;98185.93;;;7.62;56.73
76519;BME280;67029;51.054;13.798;2023-12-22T10:19:05;98169.50;;;7.60;55.92
76519;BME280;67029;51.054;13.798;2023-12-22T10:21:35;98184.89;;;7.62;55.98
76519;BME280;67029;51.054;13.798;2023-12-22T10:24:05;98182.73;;;7.68;55.34
76519;BME280;67029;51.054;13.798;2023-12-22T10:26:36;98219.25;;;7.69;55.66
76519;BME280;67029;51.054;13.798;2023-12-22T10:29:08;98223.81;;;7.81;55.84
76519;BME280;67029;51.054;13.798;2023-12-22T10:31:40;98220.67;;;8.00;54.03
76519;BME280;67029;51.054;13.798;2023-12-22T10:34:07;98206.37;;;8.11;54.18
76519;BME280;67029;51.054;13.798;2023-12-22T10:36:37;98211.50;;;8.18;53.78
76519;BME280;67029;51.054;13.798;2023-12-22T10:39:09;98230.21;;;8.24;53.67
76519;BME280;67029;51.054;13.798;2023-12-22T10:41:38;98219.47;;;8.14;52.92
76519;BME280;67029;51.054;13.798;2023-12-22T10:44:08;98228.73;;;8.18;53.56
76519;BME280;67029;51.054;13.798;2023-12-22T10:46:38;98226.59;;;8.37;53.76
76519;BME280;67029;51.054;13.798;2023-12-22T10:49:08;98219.12;;;8.63;53.39
76519;BME280;67029;51.054;13.798;2023-12-22T10:51:38;98212.40;;;8.67;52.55
76519;BME280;67029;51.054;13.798;2023-12-22T10:54:08;98210.40;;;8.84;53.00
76519;BME280;67029;51.054;13.798;2023-12-22T10:56:39;98210.22;;;8.94;52.29
76519;BME280;67029;51.054;13.798;2023-12-22T10:59:09;98209.41;;;8.89;51.92
76519;BME280;67029;51.054;13.798;2023-12-22T11:01:39;98203.56;;;8.92;52.08
76519;BME280;67029;51.054;13.798;2023-12-22T11:04:13;98229.19;;;8.83;52.42
76519;BME280;67029;51.054;13.798;2023-12-22T11:06:41;98231.80;;;8.75;52.55
76519;BME280;67029;51.054;13.798;2023-12-22T11:09:11;98224.42;;;8.57;54.42
76519;BME280;67029;51.054;13.798;2023-12-22T11:11:41;98234.50;;;8.37;55.55
76519;BME280;67029;51.054;13.798;2023-12-22T11:14:13;98229.35;;;8.31;55.76
76519;BME280;67029;51.054;13.798;2023-12-22T11:16:43;98212.71;;;8.24;56.52
76519;BME280;67029;51.054;13.798;2023-12-22T11:19:13;98208.98;;;8.18;56.21
76519;BME280;67029;51.054;13.798;2023-12-22T11:21:45;98209.66;;;8.13;56.51
76519;BME280;67029;51.054;13.798;2023-12-22T11:24:15;98199.63;;;8.25;56.60
76519;BME280;67029;51.054;13.798;2023-12-22T11:26:45;98194.10;;;8.18;56.65
76519;BME280;67029;51.054;13.798;2023-12-22T11:29:16;98184.64;;;8.12;56.79
76519;BME280;67029;51.054;13.798;2023-12-22T11:31:47;98183.64;;;8.34;56.58
76519;BME280;67029;51.054;13.798;2023-12-22T11:34:17;98161.83;;;8.50;56.48
76519;BME280;67029;51.054;13.798;2023-12-22T11:36:47;98162.59;;;8.64;56.45
76519;BME280;67029;51.054;13.798;2023-12-22T11:39:16;98152.38;;;8.82;56.17
76519;BME280;67029;51.054;13.798;2023-12-22T11:41:47;98172.25;;;8.94;56.23
76519;BME280;67029;51.054;13.798;2023-12-22T11:44:16;98169.22;;;8.98;55.73
76519;BME280;67029;51.054;13.798;2023-12-22T11:46:47;98157.05;;;8.97;55.19
76519;BME280;67029;51.054;13.798;2023-12-22T11:49:17;98165.52;;;8.98;54.92
76519;BME280;67029;51.054;13.798;2023-12-22T11:51:46;98160.98;;;8.87;54.98
76519;BME280;67029;51.054;13.798;2023-12-22T11:54:47;98156.33;;;8.92;54.75
76519;BME280;67029;51.054;13.798;2023-12-22T11:56:47;98139.53;;;8.89;54.62
76519;BME280;67029;51.054;13.798;2023-12-22T11:59:17;98142.51;;;8.86;54.74
76519;BME280;67029;51.054;13.798;2023-12-22T12:01:54;98128.12;;;8.74;54.51
76519;BME280;67029;51.054;13.798;2023-12-22T12:04:17;98140.94;;;8.67;54.96
76519;BME280;67029;51.054;13.798;2023-12-22T12:06:47;98133.78;;;8.69;54.59
76519;BME280;67029;51.054;13.798;2023-12-22T12:09:24;98144.17;;;8.68;54.81
76519;BME280;67029;51.054;13.798;2023-12-22T12:14:37;98141.52;;;8.72;54.62
76519;BME280;67029;51.054;13.798;2023-12-22T12:16:49;98139.34;;;8.73;54.87
76519;BME280;67029;51.054;13.798;2023-12-22T12:19:19;98140.32;;;8.82;54.85
76519;BME280;67029;51.054;13.798;2023-12-22T12:21:49;98130.11;;;8.91;54.78
76519;BME280;67029;51.054;13.798;2023-12-22T12:24:19;98124.33;;;8.96;54.58
76519;BME280;67029;51.054;13.798;2023-12-22T12:26:50;98118.69;;;9.10;54.46
76519;BME280;67029;51.054;13.798;2023-12-22T12:29:20;98107.20;;;9.20;54.24
76519;BME280;67029;51.054;13.798;2023-12-22T12:31:50;98105.36;;;9.22;53.95
76519;BME280;67029;51.054;13.798;2023-12-22T12:34:22;98092.52;;;9.17;53.86
76519;BME280;67029;51.054;13.798;2023-12-22T12:36:51;98099.30;;;9.14;53.13
76519;BME280;67029;51.054;13.798;2023-12-22T12:39:22;98095.25;;;9.00;53.40
76519;BME280;67029;51.054;13.798;2023-12-22T12:41:53;98121.73;;;8.87;53.48
76519;BME280;67029;51.054;13.798;2023-12-22T12:44:24;98115.60;;;8.87;52.98
76519;BME280;67029;51.054;13.798;2023-12-22T12:46:52;98107.53;;;8.81;52.77
76519;BME280;67029;51.054;13.798;2023-12-22T12:49:22;98127.04;;;8.57;53.85
76519;BME280;67029;51.054;13.798;2023-12-22T12:51:53;98145.05;;;8.53;54.45
76519;BME280;67029;51.054;13.798;2023-12-22T12:54:23;98140.38;;;8.32;55.23
76519;BME280;67029;51.054;13.798;2023-12-22T12:56:53;98142.98;;;8.28;55.41
76519;BME280;67029;51.054;13.798;2023-12-22T12:59:26;98124.23;;;8.30;55.65
76519;BME280;67029;51.054;13.798;2023-12-22T13:01:54;98135.91;;;8.23;55.80
76519;BME280;67029;51.054;13.798;2023-12-22T13:04:38;98124.00;;;8.08;56.23
76519;BME280;67029;51.054;13.798;2023-12-22T13:06:55;98149.23;;;8.01;56.52
76519;BME280;67029;51.054;13.798;2023-12-22T13:09:32;98150.20;;;7.95;57.17
76519;BME280;67029;51.054;13.798;2023-12-22T13:11:55;98139.38;;;7.96;57.41
76519;BME280;67029;51.054;13.798;2023-12-22T13:14:25;98140.20;;;7.88;57.76
76519;BME280;67029;51.054;13.798;2023-12-22T13:16:56;98143.95;;;7.87;57.96
76519;BME280;67029;51.054;13.798;2023-12-22T13:19:26;98149.12;;;7.86;57.95